createdAt,value
2018-12-25T00:01:23.911Z,10.60
2018-12-25T00:03:55.376Z,9.53
2018-12-25T00:06:27.090Z,11.40
2018-12-25T00:08:58.423Z,10.60
2018-12-25T00:12:56.541Z,12.47
2018-12-25T00:15:28.074Z,11.43
2018-12-25T00:17:59.659Z,11.00
2018-12-25T00:20:33.327Z,14.23
2018-12-25T00:23:04.184Z,10.23
2018-12-25T00:25:35.738Z,10.20
2018-12-25T00:28:07.255Z,12.80
2018-12-25T00:30:38.709Z,11.30
2018-12-25T00:33:09.972Z,11.63
2018-12-25T00:35:41.359Z,12.50
2018-12-25T00:38:12.651Z,14.10
2018-12-25T00:40:43.978Z,10.77
2018-12-25T00:43:15.312Z,13.27
2018-12-25T00:45:46.599Z,9.77
2018-12-25T00:48:17.843Z,12.07
2018-12-25T00:50:49.227Z,13.00
2018-12-25T00:53:20.662Z,10.40
2018-12-25T00:55:51.981Z,14.87
2018-12-25T00:58:23.290Z,13.10
2018-12-25T01:00:54.597Z,11.97
2018-12-25T01:03:26.236Z,15.03
2018-12-25T01:05:57.584Z,9.47
2018-12-25T01:08:28.852Z,8.63
2018-12-25T01:11:00.190Z,10.60
2018-12-25T01:13:31.551Z,15.00
2018-12-25T01:16:02.905Z,11.10
2018-12-25T01:18:34.214Z,11.80
2018-12-25T01:21:05.492Z,11.40
2018-12-25T01:23:36.893Z,10.63
2018-12-25T01:26:08.170Z,10.20
2018-12-25T01:28:39.437Z,10.50
2018-12-25T01:31:10.718Z,12.90
2018-12-25T01:33:41.987Z,9.90
2018-12-25T01:36:13.328Z,12.13
2018-12-25T01:38:44.566Z,9.63
2018-12-25T01:41:15.879Z,12.80
2018-12-25T01:43:47.190Z,11.60
2018-12-25T01:46:18.460Z,9.80
2018-12-25T01:48:49.707Z,10.00
2018-12-25T01:51:21.007Z,11.77
2018-12-25T01:53:53.820Z,10.80
2018-12-25T01:56:25.164Z,9.70
2018-12-25T01:58:56.398Z,18.13
2018-12-25T02:01:27.713Z,9.13
2018-12-25T02:03:58.968Z,12.37
2018-12-25T02:06:30.249Z,11.00
2018-12-25T02:09:01.563Z,13.70
2018-12-25T02:11:32.806Z,9.70
2018-12-25T02:14:04.064Z,8.53
2018-12-25T02:16:35.367Z,10.80
2018-12-25T02:19:06.642Z,11.83
2018-12-25T02:21:37.972Z,8.97
2018-12-25T02:24:09.257Z,11.10
2018-12-25T02:26:40.518Z,10.97
2018-12-25T02:29:11.792Z,8.70
2018-12-25T02:31:43.112Z,11.87
2018-12-25T02:34:14.337Z,10.50
2018-12-25T02:36:45.623Z,10.90
2018-12-25T02:39:16.851Z,9.13
2018-12-25T02:41:48.010Z,12.10
2018-12-25T02:44:19.329Z,13.43
2018-12-25T02:46:50.641Z,11.40
2018-12-25T02:49:21.910Z,12.07
2018-12-25T02:51:53.147Z,13.93
2018-12-25T02:54:26.693Z,9.97
2018-12-25T02:56:57.745Z,9.87
2018-12-25T02:59:29.035Z,8.53
2018-12-25T03:02:00.251Z,16.90
2018-12-25T03:04:31.535Z,14.03
2018-12-25T03:07:02.796Z,14.57
2018-12-25T03:09:34.093Z,12.03
2018-12-25T03:12:05.433Z,14.10
2018-12-25T03:14:36.692Z,11.40
2018-12-25T03:17:07.855Z,10.70
2018-12-25T03:19:39.143Z,11.60
2018-12-25T03:22:10.411Z,13.40
2018-12-25T03:24:41.673Z,10.63
2018-12-25T03:27:12.946Z,10.70
2018-12-25T03:29:44.176Z,10.30
2018-12-25T03:32:15.430Z,11.10
2018-12-25T03:34:46.612Z,16.83
2018-12-25T03:37:17.873Z,18.50
2018-12-25T03:39:49.138Z,14.20
2018-12-25T03:42:20.432Z,12.63
2018-12-25T03:44:51.696Z,11.30
2018-12-25T03:47:22.850Z,11.10
2018-12-25T03:49:54.049Z,13.70
2018-12-25T03:52:25.245Z,14.60
2018-12-25T03:54:56.531Z,13.30
2018-12-25T03:57:27.897Z,17.43
2018-12-25T03:59:59.135Z,10.33
2018-12-25T04:02:30.321Z,15.80
2018-12-25T04:05:01.622Z,10.03
2018-12-25T04:07:32.847Z,10.33
2018-12-25T04:10:04.172Z,17.63
2018-12-25T04:12:35.453Z,13.67
2018-12-25T04:15:06.939Z,15.97
2018-12-25T04:17:38.121Z,12.67
2018-12-25T04:20:19.550Z,15.27
2018-12-25T04:22:43.013Z,12.17
2018-12-25T04:25:14.247Z,12.83
2018-12-25T04:27:45.630Z,9.40
2018-12-25T04:32:49.568Z,12.43
2018-12-25T04:35:20.800Z,15.20
2018-12-25T04:37:52.156Z,10.73
2018-12-25T04:40:23.407Z,16.53
2018-12-25T04:42:54.536Z,12.17
2018-12-25T04:45:25.736Z,11.30
2018-12-25T04:47:56.934Z,12.83
2018-12-25T04:50:29.476Z,12.53
2018-12-25T04:53:01.116Z,13.87
2018-12-25T04:55:32.371Z,11.47
2018-12-25T04:58:03.614Z,9.63
2018-12-25T05:00:34.877Z,14.10
2018-12-25T05:03:06.127Z,11.17
2018-12-25T05:05:37.378Z,15.60
2018-12-25T05:08:08.642Z,13.80
2018-12-25T05:10:39.871Z,10.73
2018-12-25T05:13:11.105Z,17.23
2018-12-25T05:15:42.354Z,13.90
2018-12-25T05:18:13.650Z,13.13
2018-12-25T05:20:44.906Z,11.23
2018-12-25T05:23:16.158Z,11.07
2018-12-25T05:25:47.438Z,11.43
2018-12-25T05:28:18.683Z,13.33
2018-12-25T05:30:49.935Z,13.10
2018-12-25T05:33:21.219Z,13.87
2018-12-25T05:35:52.388Z,14.43
2018-12-25T05:38:23.646Z,17.27
2018-12-25T05:40:54.898Z,14.30
2018-12-25T05:43:26.144Z,15.13
2018-12-25T05:45:57.347Z,14.93
2018-12-25T05:48:28.553Z,13.63
2018-12-25T05:50:59.816Z,15.00
2018-12-25T05:53:31.134Z,12.50
2018-12-25T05:56:02.339Z,13.77
2018-12-25T05:58:33.607Z,13.47
2018-12-25T06:01:04.867Z,12.27
2018-12-25T06:03:36.125Z,11.90
2018-12-25T06:06:07.368Z,16.20
2018-12-25T06:08:38.526Z,14.53
2018-12-25T06:11:09.815Z,16.63
2018-12-25T06:13:41.056Z,13.50
2018-12-25T06:16:12.263Z,13.60
2018-12-25T06:18:43.394Z,14.50
2018-12-25T06:21:14.706Z,14.77
2018-12-25T06:23:45.943Z,15.73
2018-12-25T06:26:17.221Z,20.00
2018-12-25T06:28:48.513Z,13.60
2018-12-25T06:31:21.420Z,15.03
2018-12-25T06:33:52.886Z,11.80
2018-12-25T06:36:24.059Z,16.80
2018-12-25T06:38:55.334Z,12.57
2018-12-25T06:41:26.598Z,15.70
2018-12-25T06:43:57.791Z,12.57
2018-12-25T06:46:29.011Z,14.83
2018-12-25T06:49:00.276Z,14.90
2018-12-25T06:51:31.542Z,18.03
2018-12-25T06:54:02.774Z,20.57
2018-12-25T06:56:34.166Z,15.87
2018-12-25T06:59:05.461Z,16.20
2018-12-25T07:01:36.698Z,18.20
2018-12-25T07:04:07.999Z,16.60
2018-12-25T07:06:39.226Z,16.63
2018-12-25T07:09:10.512Z,14.37
2018-12-25T07:11:41.792Z,15.50
2018-12-25T07:14:13.019Z,14.40
2018-12-25T07:16:44.380Z,18.63
2018-12-25T07:19:15.603Z,13.90
2018-12-25T07:21:47.186Z,17.83
2018-12-25T07:24:20.388Z,19.23
2018-12-25T07:26:51.404Z,21.60
2018-12-25T07:29:26.464Z,13.70
2018-12-25T07:31:57.654Z,13.93
2018-12-25T07:34:28.906Z,15.93
2018-12-25T07:37:00.228Z,16.53
2018-12-25T07:39:31.505Z,14.07
2018-12-25T07:42:02.737Z,15.47
2018-12-25T07:44:33.941Z,16.03
2018-12-25T07:47:05.229Z,11.27
2018-12-25T07:49:36.455Z,20.80
2018-12-25T07:54:36.770Z,17.13
2018-12-25T07:57:08.440Z,15.63
2018-12-25T07:59:39.712Z,15.30
2018-12-25T08:02:11.118Z,18.20
2018-12-25T08:04:42.382Z,16.00
2018-12-25T08:07:13.626Z,17.20
2018-12-25T08:09:45.040Z,14.07
2018-12-25T08:12:16.339Z,16.10
2018-12-25T08:14:47.564Z,21.27
2018-12-25T08:17:18.814Z,16.37
2018-12-25T08:19:50.005Z,16.23
2018-12-25T08:22:21.304Z,19.93
2018-12-25T08:24:52.627Z,17.03
2018-12-25T08:27:23.916Z,15.10
2018-12-25T08:29:55.241Z,17.87
2018-12-25T08:32:26.571Z,15.70
2018-12-25T08:34:57.934Z,16.90
2018-12-25T08:37:29.246Z,16.00
2018-12-25T08:40:00.626Z,20.40
2018-12-25T08:42:31.866Z,17.80
2018-12-25T08:45:03.235Z,17.00
2018-12-25T08:47:34.524Z,17.53
2018-12-25T08:50:08.320Z,14.20
2018-12-25T08:52:39.470Z,15.43
2018-12-25T08:55:10.859Z,18.70
2018-12-25T08:57:42.202Z,21.07
2018-12-25T09:00:15.212Z,18.10
2018-12-25T09:02:46.510Z,15.77
2018-12-25T09:05:17.772Z,15.90
2018-12-25T09:07:49.025Z,16.80
2018-12-25T09:10:20.349Z,23.70
2018-12-25T09:12:51.608Z,18.80
2018-12-25T09:15:22.908Z,16.53
2018-12-25T09:17:54.159Z,17.27
2018-12-25T09:20:25.342Z,15.77
2018-12-25T09:22:56.691Z,16.97
2018-12-25T09:25:27.981Z,14.93
2018-12-25T09:27:59.253Z,16.47
2018-12-25T09:30:30.585Z,17.53
2018-12-25T09:33:01.853Z,17.80
2018-12-25T09:35:33.116Z,14.20
2018-12-25T09:38:07.958Z,17.87
2018-12-25T09:40:39.176Z,18.10
2018-12-25T09:43:10.448Z,20.50
2018-12-25T09:45:41.634Z,17.90
2018-12-25T09:48:13.480Z,18.73
2018-12-25T09:50:44.989Z,17.80
2018-12-25T09:53:16.291Z,14.50
2018-12-25T09:55:47.442Z,20.27
2018-12-25T09:58:18.834Z,13.67
2018-12-25T10:00:50.121Z,14.90
2018-12-25T10:03:21.370Z,17.13
2018-12-25T10:05:52.552Z,18.03
2018-12-25T10:08:23.761Z,15.73
2018-12-25T10:10:55.097Z,14.60
2018-12-25T10:13:26.336Z,16.33
2018-12-25T10:15:57.654Z,12.03
2018-12-25T10:18:28.939Z,15.40
2018-12-25T10:21:00.293Z,13.87
2018-12-25T10:23:31.499Z,16.60
2018-12-25T10:26:02.788Z,13.97
2018-12-25T10:28:34.004Z,19.37
2018-12-25T10:31:05.332Z,13.00
2018-12-25T10:33:36.560Z,16.27
2018-12-25T10:36:07.819Z,20.33
2018-12-25T10:38:39.043Z,14.50
2018-12-25T10:41:10.246Z,14.57
2018-12-25T10:43:41.553Z,16.20
2018-12-25T10:46:12.800Z,16.40
2018-12-25T10:48:44.138Z,13.07
2018-12-25T10:51:15.391Z,15.90
2018-12-25T10:53:46.725Z,15.70
2018-12-25T10:56:18.123Z,14.83
2018-12-25T10:58:53.542Z,13.63
2018-12-25T11:01:36.289Z,13.03
2018-12-25T11:04:07.575Z,13.27
2018-12-25T11:06:38.811Z,16.03
2018-12-25T11:09:10.214Z,14.47
2018-12-25T11:11:41.359Z,11.43
2018-12-25T11:14:12.670Z,14.33
2018-12-25T11:16:44.063Z,11.13
2018-12-25T11:19:15.402Z,12.97
2018-12-25T11:21:46.776Z,14.93
2018-12-25T11:24:17.923Z,11.47
2018-12-25T11:26:49.210Z,11.13
2018-12-25T11:29:20.508Z,12.60
2018-12-25T11:31:51.787Z,16.80
2018-12-25T11:34:22.966Z,11.10
2018-12-25T11:36:54.202Z,12.13
2018-12-25T11:39:25.477Z,13.17
2018-12-25T11:41:56.745Z,11.67
2018-12-25T11:44:28.044Z,10.20
2018-12-25T11:46:59.234Z,11.23
2018-12-25T11:49:30.411Z,11.80
2018-12-25T11:52:01.716Z,11.57
2018-12-25T11:54:32.920Z,9.10
2018-12-25T11:57:04.307Z,10.40
2018-12-25T11:59:35.455Z,12.20
2018-12-25T12:02:06.886Z,11.73
2018-12-25T12:04:38.163Z,9.53
2018-12-25T12:07:09.427Z,13.50
2018-12-25T12:09:40.678Z,15.03
2018-12-25T12:12:12.036Z,12.83
2018-12-25T12:14:43.296Z,9.80
2018-12-25T12:17:17.697Z,10.63
2018-12-25T12:19:48.915Z,9.47
2018-12-25T12:22:20.061Z,12.80
2018-12-25T12:24:51.410Z,13.43
2018-12-25T12:27:22.785Z,17.60
2018-12-25T12:29:54.165Z,11.50
2018-12-25T12:32:25.378Z,11.10
2018-12-25T12:34:56.707Z,15.20
2018-12-25T12:37:27.939Z,10.97
2018-12-25T12:39:59.232Z,11.13
2018-12-25T12:42:30.498Z,12.23
2018-12-25T12:45:01.851Z,13.23
2018-12-25T12:47:33.138Z,15.23
2018-12-25T12:50:04.438Z,12.90
2018-12-25T12:52:35.713Z,15.50
2018-12-25T12:55:07.172Z,12.40
2018-12-25T12:57:39.929Z,16.20
2018-12-25T13:00:11.568Z,11.30
2018-12-25T13:02:42.901Z,17.50
2018-12-25T13:05:14.239Z,15.07
2018-12-25T13:07:45.489Z,12.87
2018-12-25T13:10:16.809Z,18.40
2018-12-25T13:12:48.024Z,17.27
2018-12-25T13:15:19.289Z,14.20
2018-12-25T13:17:50.581Z,14.13
2018-12-25T13:20:21.845Z,15.33
2018-12-25T13:22:54.180Z,16.37
2018-12-25T13:25:25.793Z,15.57
2018-12-25T13:27:57.118Z,15.83
2018-12-25T13:30:28.399Z,15.37
2018-12-25T13:32:59.687Z,16.07
2018-12-25T13:35:31.000Z,13.23
2018-12-25T13:38:02.158Z,14.00
2018-12-25T13:40:33.367Z,16.30
2018-12-25T13:43:04.731Z,17.33
2018-12-25T13:45:35.958Z,15.93
2018-12-25T13:48:07.235Z,16.33
2018-12-25T13:50:38.551Z,16.63
2018-12-25T13:53:09.769Z,12.37
2018-12-25T13:55:41.031Z,15.93
2018-12-25T13:58:12.218Z,13.00
2018-12-25T14:00:43.465Z,15.30
2018-12-25T14:03:14.753Z,17.10
2018-12-25T14:05:46.041Z,14.73
2018-12-25T14:08:17.257Z,13.53
2018-12-25T14:10:48.475Z,14.07
2018-12-25T14:13:19.738Z,16.73
2018-12-25T14:15:50.938Z,13.10
2018-12-25T14:18:22.317Z,18.83
2018-12-25T14:20:53.562Z,13.30
2018-12-25T14:23:24.781Z,13.97
2018-12-25T14:25:56.052Z,14.57
2018-12-25T14:28:27.256Z,11.23
2018-12-25T14:30:58.571Z,11.77
2018-12-25T14:33:29.891Z,10.83
2018-12-25T14:36:01.186Z,14.13
2018-12-25T14:38:32.461Z,10.93
2018-12-25T14:41:03.814Z,12.20
2018-12-25T14:43:35.066Z,11.17
2018-12-25T14:46:06.243Z,13.00
2018-12-25T14:48:37.473Z,14.57
2018-12-25T14:51:08.745Z,12.80
2018-12-25T14:53:40.011Z,13.30
2018-12-25T14:56:11.202Z,17.10
2018-12-25T14:58:42.373Z,14.87
2018-12-25T15:01:13.647Z,19.93
2018-12-25T15:03:44.888Z,12.67
2018-12-25T15:06:16.228Z,12.10
2018-12-25T15:08:47.474Z,12.97
2018-12-25T15:11:18.727Z,11.83
2018-12-25T15:13:50.034Z,12.03
2018-12-25T15:16:21.268Z,11.63
2018-12-25T15:18:52.528Z,12.13
2018-12-25T15:21:23.764Z,11.03
2018-12-25T15:23:54.993Z,9.20
2018-12-25T15:26:26.346Z,10.70
2018-12-25T15:28:57.579Z,12.33
2018-12-25T15:31:28.842Z,16.10
2018-12-25T15:34:00.079Z,12.87
2018-12-25T15:36:31.362Z,13.10
2018-12-25T15:39:02.656Z,15.47
2018-12-25T15:41:33.885Z,12.23
2018-12-25T15:44:05.155Z,14.33
2018-12-25T15:46:36.405Z,12.00
2018-12-25T15:49:07.632Z,14.90
2018-12-25T15:51:38.897Z,12.47
2018-12-25T15:54:10.025Z,11.30
2018-12-25T15:56:41.354Z,14.17
2018-12-25T15:59:12.516Z,11.83
2018-12-25T16:01:43.803Z,11.37
2018-12-25T16:04:15.171Z,17.70
2018-12-25T16:06:46.365Z,13.47
2018-12-25T16:09:17.573Z,13.83
2018-12-25T16:11:48.805Z,17.10
2018-12-25T16:14:20.109Z,14.93
2018-12-25T16:16:51.340Z,14.03
2018-12-25T16:19:22.652Z,17.97
2018-12-25T16:21:53.812Z,15.50
2018-12-25T16:24:27.583Z,15.03
2018-12-25T16:26:58.073Z,16.20
2018-12-25T16:29:30.836Z,17.93
2018-12-25T16:32:02.110Z,19.37
2018-12-25T16:34:33.412Z,15.97
2018-12-25T16:37:04.657Z,18.40
2018-12-25T16:39:35.950Z,15.93
2018-12-25T16:42:07.169Z,17.57
2018-12-25T16:44:38.466Z,14.33
2018-12-25T16:47:09.883Z,16.30
2018-12-25T16:49:41.192Z,18.03
2018-12-25T16:52:12.488Z,15.40
2018-12-25T16:54:43.796Z,15.03
2018-12-25T16:57:15.103Z,17.80
2018-12-25T16:59:46.457Z,14.87
2018-12-25T17:02:17.795Z,17.07
2018-12-25T17:04:49.222Z,15.73
2018-12-25T17:07:20.655Z,15.23
2018-12-25T17:09:51.993Z,13.50
2018-12-25T17:12:23.315Z,17.63
2018-12-25T17:14:56.234Z,17.00
2018-12-25T17:17:27.540Z,13.40
2018-12-25T17:19:59.007Z,17.87
2018-12-25T17:22:30.476Z,14.83
2018-12-25T17:25:01.753Z,20.60
2018-12-25T17:27:33.033Z,17.43
2018-12-25T17:30:04.484Z,17.80
2018-12-25T17:32:35.859Z,15.50
2018-12-25T17:35:07.132Z,15.20
2018-12-25T17:37:38.478Z,16.30
2018-12-25T17:40:09.946Z,16.50
2018-12-25T17:42:41.367Z,18.80
2018-12-25T17:45:12.598Z,15.57
2018-12-25T17:47:43.907Z,13.50
2018-12-25T17:50:15.163Z,16.20
2018-12-25T17:52:46.460Z,14.83
2018-12-25T17:55:17.642Z,16.17
2018-12-25T17:57:48.859Z,16.80
2018-12-25T18:00:20.178Z,17.20
2018-12-25T18:02:51.517Z,13.90
2018-12-25T18:05:22.892Z,20.93
2018-12-25T18:07:54.380Z,16.17
2018-12-25T18:10:25.819Z,13.33
2018-12-25T18:12:57.099Z,13.53
2018-12-25T18:15:28.530Z,14.60
2018-12-25T18:18:00.002Z,13.23
2018-12-25T18:20:31.376Z,13.07
2018-12-25T18:23:02.882Z,21.90
2018-12-25T18:25:34.334Z,15.77
2018-12-25T18:28:05.779Z,16.07
2018-12-25T18:30:37.167Z,10.90
2018-12-25T18:33:08.667Z,15.13
2018-12-25T18:35:40.027Z,12.53
2018-12-25T18:38:11.570Z,14.63
2018-12-25T18:40:43.120Z,16.03
2018-12-25T18:43:14.330Z,16.97
2018-12-25T18:45:45.653Z,13.80
2018-12-25T18:48:17.100Z,13.57
2018-12-25T18:50:48.312Z,14.63
2018-12-25T18:53:22.495Z,18.53
2018-12-25T18:55:56.518Z,15.90
2018-12-25T18:58:28.011Z,15.43
2018-12-25T19:00:59.580Z,16.43
2018-12-25T19:03:30.937Z,13.60
2018-12-25T19:06:02.122Z,15.93
2018-12-25T19:08:33.449Z,14.40
2018-12-25T19:11:04.760Z,18.60
2018-12-25T19:13:36.413Z,17.87
2018-12-25T19:16:08.554Z,15.67
2018-12-25T19:18:39.803Z,18.90
2018-12-25T19:21:11.126Z,15.53
2018-12-25T19:23:53.491Z,19.33
2018-12-25T19:26:24.856Z,19.80
2018-12-25T19:28:56.341Z,16.90
2018-12-25T19:31:27.666Z,18.80
2018-12-25T19:33:58.892Z,18.17
2018-12-25T19:36:30.284Z,15.00
2018-12-25T19:39:01.434Z,15.90
2018-12-25T19:41:32.727Z,19.23
2018-12-25T19:44:03.990Z,25.83
2018-12-25T19:46:35.310Z,17.30
2018-12-25T19:49:06.645Z,16.87
2018-12-25T19:51:37.889Z,16.20
2018-12-25T19:54:09.242Z,14.23
2018-12-25T19:56:40.497Z,15.80
2018-12-25T19:59:12.072Z,19.17
2018-12-25T20:01:43.258Z,19.23
2018-12-25T20:05:09.263Z,17.23
2018-12-25T20:08:47.976Z,15.60
2018-12-25T20:12:06.230Z,25.87
2018-12-25T20:15:34.430Z,33.63
2018-12-25T20:19:02.935Z,22.73
2018-12-25T20:22:33.282Z,20.87
2018-12-25T20:26:06.191Z,19.73
2018-12-25T20:29:27.594Z,20.37
2018-12-25T20:33:07.204Z,20.43
2018-12-25T20:39:08.999Z,18.87
2018-12-25T20:42:39.993Z,20.13
2018-12-25T20:46:16.632Z,20.10
2018-12-25T20:49:22.326Z,18.60
2018-12-25T20:53:10.472Z,20.20
2018-12-25T20:56:41.681Z,18.80
2018-12-25T21:00:21.342Z,23.77
2018-12-25T21:03:56.795Z,22.57
2018-12-25T21:07:23.799Z,19.70
2018-12-25T21:10:47.841Z,18.20
2018-12-25T21:14:24.485Z,20.80
2018-12-25T21:18:05.012Z,19.57
2018-12-25T21:21:38.668Z,20.00
2018-12-25T21:25:09.768Z,23.80
2018-12-25T21:27:34.218Z,20.33
2018-12-25T21:30:11.006Z,26.10
2018-12-25T21:32:44.455Z,18.50
2018-12-25T21:35:34.912Z,21.87
2018-12-25T21:38:06.770Z,31.13
2018-12-25T21:40:38.735Z,26.47
2018-12-25T21:43:10.421Z,27.90
2018-12-25T21:45:41.847Z,23.47
2018-12-25T21:48:13.558Z,34.23
2018-12-25T21:50:45.151Z,22.50
2018-12-25T21:53:16.523Z,27.30
2018-12-25T21:55:48.007Z,36.67
2018-12-25T21:58:19.839Z,29.47
2018-12-25T22:00:51.615Z,26.37
2018-12-25T22:03:23.141Z,24.10
2018-12-25T22:05:54.472Z,25.77
2018-12-25T22:08:25.829Z,26.87
2018-12-25T22:10:57.151Z,33.57
2018-12-25T22:13:28.434Z,25.27
2018-12-25T22:15:59.734Z,25.07
2018-12-25T22:18:31.029Z,30.97
2018-12-25T22:21:02.305Z,36.53
2018-12-25T22:23:33.660Z,26.67
2018-12-25T22:26:05.026Z,25.93
2018-12-25T22:28:36.531Z,30.80
2018-12-25T22:31:08.012Z,31.53
2018-12-25T22:33:39.362Z,33.60
2018-12-25T22:36:10.682Z,32.30
2018-12-25T22:38:42.055Z,30.27
2018-12-25T22:41:13.444Z,39.97
2018-12-25T22:43:44.713Z,30.23
2018-12-25T22:46:16.065Z,28.83
2018-12-25T22:48:47.452Z,29.50
2018-12-25T22:51:18.861Z,25.10
2018-12-25T22:53:50.235Z,35.73
2018-12-25T22:56:21.661Z,29.00
2018-12-25T22:58:52.993Z,29.30
2018-12-25T23:01:24.423Z,32.43
2018-12-25T23:03:55.805Z,34.80
2018-12-25T23:06:27.167Z,38.27
2018-12-25T23:08:58.450Z,32.47
2018-12-25T23:11:29.724Z,34.60
2018-12-25T23:14:01.143Z,33.47
2018-12-25T23:16:32.410Z,29.50
2018-12-25T23:19:03.752Z,31.07
2018-12-25T23:21:35.042Z,32.07
2018-12-25T23:24:06.395Z,34.17
2018-12-25T23:26:37.625Z,40.63
2018-12-25T23:29:08.981Z,35.07
2018-12-25T23:31:40.170Z,37.03
2018-12-25T23:34:11.455Z,30.00
2018-12-25T23:36:42.757Z,37.47
2018-12-25T23:39:14.152Z,36.00
2018-12-25T23:41:45.463Z,31.53
2018-12-25T23:44:16.649Z,35.10
2018-12-25T23:46:47.918Z,38.87
2018-12-25T23:49:19.161Z,36.03
2018-12-25T23:51:50.426Z,32.80
2018-12-25T23:54:21.702Z,36.73
2018-12-25T23:56:52.994Z,40.03
2018-12-25T23:59:24.245Z,35.93
